createdAt,value
2023-06-17T00:00:43.841Z,16.80
2023-06-17T00:03:21.616Z,17.00
2023-06-17T00:05:53.514Z,17.00
2023-06-17T00:08:30.136Z,17.00
2023-06-17T00:11:05.635Z,16.80
2023-06-17T00:13:42.852Z,16.80
2023-06-17T00:16:20.756Z,16.80
2023-06-17T00:19:05.124Z,16.70
2023-06-17T00:21:39.306Z,16.70
2023-06-17T00:24:16.848Z,16.70
2023-06-17T00:26:59.053Z,16.70
2023-06-17T00:29:31.911Z,16.60
2023-06-17T00:32:05.257Z,16.50
2023-06-17T00:34:37.352Z,16.60
2023-06-17T00:37:34.310Z,16.50
2023-06-17T00:40:14.866Z,16.30
2023-06-17T00:42:43.667Z,16.30
2023-06-17T00:45:17.745Z,16.20
2023-06-17T00:47:58.353Z,16.10
2023-06-17T00:50:32.816Z,15.90
2023-06-17T00:53:17.564Z,15.80
2023-06-17T00:55:57.892Z,15.80
2023-06-17T00:58:45.885Z,15.80
2023-06-17T01:01:38.020Z,15.70
2023-06-17T01:04:18.787Z,15.80
2023-06-17T01:07:04.638Z,15.70
2023-06-17T01:09:44.923Z,15.80
2023-06-17T01:12:22.600Z,15.70
2023-06-17T01:14:52.480Z,15.70
2023-06-17T01:17:22.055Z,15.70
2023-06-17T01:19:54.237Z,15.70
2023-06-17T01:22:39.987Z,15.50
2023-06-17T01:25:20.780Z,15.50
2023-06-17T01:27:56.196Z,15.50
2023-06-17T01:30:30.914Z,15.20
2023-06-17T01:33:03.159Z,15.30
2023-06-17T01:36:00.929Z,15.30
2023-06-17T01:38:49.177Z,15.20
2023-06-17T01:41:31.420Z,15.20
2023-06-17T01:44:02.361Z,15.40
2023-06-17T01:46:59.563Z,15.30
2023-06-17T01:49:32.373Z,15.30
2023-06-17T01:52:07.341Z,15.20
2023-06-17T01:54:47.029Z,15.10
2023-06-17T01:57:36.446Z,15.00
2023-06-17T02:00:17.805Z,15.30
2023-06-17T02:03:12.098Z,15.20
2023-06-17T02:05:44.486Z,15.00
2023-06-17T02:08:22.732Z,15.00
2023-06-17T02:11:00.165Z,14.90
2023-06-17T02:13:45.604Z,14.80
2023-06-17T02:16:46.974Z,14.90
2023-06-17T02:19:24.196Z,14.90
2023-06-17T02:21:58.039Z,14.90
2023-06-17T02:24:34.259Z,14.80
2023-06-17T02:27:10.675Z,14.90
2023-06-17T02:29:53.977Z,14.80
2023-06-17T02:32:32.020Z,14.70
2023-06-17T02:35:17.231Z,14.70
2023-06-17T02:37:53.747Z,14.80
2023-06-17T02:40:49.016Z,14.90
2023-06-17T02:43:35.958Z,14.90
2023-06-17T02:46:21.623Z,14.90
2023-06-17T02:49:00.666Z,14.90
2023-06-17T02:51:48.152Z,14.70
2023-06-17T02:54:17.527Z,14.80
2023-06-17T02:56:51.896Z,14.80
2023-06-17T02:59:41.855Z,14.70
2023-06-17T03:02:36.217Z,14.50
2023-06-17T03:05:11.889Z,14.40
2023-06-17T03:07:41.457Z,14.50
2023-06-17T03:10:31.390Z,14.40
2023-06-17T03:13:08.018Z,14.20
2023-06-17T03:15:37.001Z,14.30
2023-06-17T03:18:21.071Z,14.20
2023-06-17T03:21:00.233Z,14.40
2023-06-17T03:23:36.449Z,14.30
2023-06-17T03:26:08.704Z,14.40
2023-06-17T03:28:43.039Z,14.50
2023-06-17T03:31:33.168Z,14.40
2023-06-17T03:34:08.591Z,14.40
2023-06-17T03:37:00.405Z,14.10
2023-06-17T03:39:49.581Z,14.30
2023-06-17T03:42:28.942Z,14.30
2023-06-17T03:45:14.112Z,14.30
2023-06-17T03:47:51.524Z,14.30
2023-06-17T03:50:32.211Z,14.30
2023-06-17T03:53:20.425Z,14.30
2023-06-17T03:55:49.753Z,14.40
2023-06-17T03:58:32.496Z,14.30
2023-06-17T04:01:00.859Z,14.40
2023-06-17T04:03:46.648Z,14.30
2023-06-17T04:06:17.870Z,14.30
2023-06-17T04:08:48.107Z,14.20
2023-06-17T04:11:17.416Z,14.30
2023-06-17T04:13:45.779Z,14.30
2023-06-17T04:16:16.221Z,14.40
2023-06-17T04:18:44.768Z,14.50
2023-06-17T04:21:23.577Z,14.60
2023-06-17T04:23:53.719Z,14.70
2023-06-17T04:26:24.052Z,14.80
2023-06-17T04:28:56.610Z,14.90
2023-06-17T04:31:47.480Z,15.00
2023-06-17T04:34:22.736Z,14.90
2023-06-17T04:36:58.365Z,15.00
2023-06-17T04:39:51.850Z,15.00
2023-06-17T04:42:29.884Z,15.00
2023-06-17T04:45:03.411Z,15.00
2023-06-17T04:47:39.971Z,15.10
2023-06-17T04:50:26.308Z,15.30
2023-06-17T04:53:06.115Z,15.50
2023-06-17T04:55:48.328Z,15.90
2023-06-17T04:58:34.245Z,16.10
2023-06-17T05:01:07.486Z,16.50
2023-06-17T05:03:44.621Z,16.70
2023-06-17T05:06:28.418Z,17.10
2023-06-17T05:09:00.474Z,17.00
2023-06-17T05:14:42.619Z,17.30
2023-06-17T05:17:11.928Z,17.50
2023-06-17T05:19:43.623Z,17.30
2023-06-17T05:22:14.381Z,16.80
2023-06-17T05:24:44.606Z,16.80
2023-06-17T05:27:27.313Z,16.90
2023-06-17T05:30:13.733Z,16.80
2023-06-17T05:32:49.798Z,16.80
2023-06-17T05:35:42.218Z,17.00
2023-06-17T05:38:19.354Z,17.00
2023-06-17T05:40:59.727Z,17.10
2023-06-17T05:43:40.978Z,17.30
2023-06-17T05:46:19.856Z,18.00
2023-06-17T05:48:48.343Z,18.90
2023-06-17T05:51:24.280Z,19.80
2023-06-17T05:54:06.578Z,20.20
2023-06-17T05:56:36.233Z,20.60
2023-06-17T05:59:07.135Z,20.70
2023-06-17T06:01:42.190Z,20.90
2023-06-17T06:04:18.934Z,21.00
2023-06-17T06:06:51.186Z,20.60
2023-06-17T06:09:19.689Z,20.40
2023-06-17T06:11:48.490Z,20.00
2023-06-17T06:14:19.292Z,20.20
2023-06-17T06:16:47.938Z,20.20
2023-06-17T06:19:16.616Z,20.20
2023-06-17T06:21:45.333Z,19.90
2023-06-17T06:24:16.280Z,19.70
2023-06-17T06:26:45.661Z,19.30
2023-06-17T06:29:15.031Z,19.50
2023-06-17T06:31:45.375Z,19.50
2023-06-17T06:34:14.155Z,19.40
2023-06-17T06:36:42.541Z,19.50
2023-06-17T06:39:15.551Z,19.50
2023-06-17T06:42:00.732Z,19.90
2023-06-17T06:44:45.427Z,20.50
2023-06-17T06:47:23.397Z,20.70
2023-06-17T06:49:52.141Z,21.00
2023-06-17T06:52:20.455Z,21.70
2023-06-17T06:54:48.733Z,22.60
2023-06-17T06:57:17.509Z,22.60
2023-06-17T06:59:53.180Z,23.00
2023-06-17T07:02:23.787Z,24.70
2023-06-17T07:04:59.092Z,26.20
2023-06-17T07:07:40.049Z,26.40
2023-06-17T07:10:14.246Z,27.30
2023-06-17T07:12:43.591Z,28.40
2023-06-17T07:15:12.326Z,28.90
2023-06-17T07:17:53.925Z,29.40
2023-06-17T07:20:26.716Z,28.80
2023-06-17T07:22:58.032Z,29.50
2023-06-17T07:25:27.505Z,30.20
2023-06-17T07:28:07.174Z,30.50
2023-06-17T07:30:36.378Z,31.20
2023-06-17T07:33:10.712Z,31.20
2023-06-17T07:35:53.834Z,31.60
2023-06-17T07:38:24.875Z,31.30
2023-06-17T07:40:55.644Z,30.80
2023-06-17T07:43:29.001Z,30.60
2023-06-17T07:45:57.460Z,30.70
2023-06-17T07:48:27.474Z,29.90
2023-06-17T07:50:56.435Z,30.80
2023-06-17T07:53:25.030Z,31.30
2023-06-17T07:55:55.125Z,31.10
2023-06-17T07:58:40.033Z,30.90
2023-06-17T08:01:19.020Z,31.30
2023-06-17T08:04:01.282Z,30.60
2023-06-17T08:06:54.925Z,31.90
2023-06-17T08:09:41.907Z,31.80
2023-06-17T08:12:24.065Z,31.90
2023-06-17T08:15:16.459Z,32.80
2023-06-17T08:17:54.020Z,32.00
2023-06-17T08:20:24.481Z,31.40
2023-06-17T08:23:00.872Z,33.40
2023-06-17T08:25:34.669Z,33.40
2023-06-17T08:28:11.888Z,32.40
2023-06-17T08:30:41.241Z,32.30
2023-06-17T08:33:09.681Z,31.00
2023-06-17T08:35:39.715Z,32.00
2023-06-17T08:38:07.984Z,32.90
2023-06-17T08:40:37.796Z,32.50
2023-06-17T08:43:06.533Z,33.70
2023-06-17T08:45:38.131Z,33.30
2023-06-17T08:48:09.088Z,34.70
2023-06-17T08:50:39.291Z,34.20
2023-06-17T08:53:08.165Z,33.50
2023-06-17T08:55:36.818Z,33.40
2023-06-17T08:58:09.294Z,34.10
2023-06-17T09:00:41.171Z,33.80
2023-06-17T09:03:10.472Z,33.60
2023-06-17T09:05:40.287Z,34.80
2023-06-17T09:08:08.802Z,33.50
2023-06-17T09:10:46.867Z,32.40
2023-06-17T09:13:15.160Z,34.00
2023-06-17T09:15:45.600Z,33.30
2023-06-17T09:18:17.839Z,33.70
2023-06-17T09:20:56.766Z,33.70
2023-06-17T09:23:26.055Z,32.70
2023-06-17T09:26:03.357Z,32.80
2023-06-17T09:28:32.106Z,33.80
2023-06-17T09:31:05.359Z,34.80
2023-06-17T09:33:33.663Z,33.50
2023-06-17T09:36:05.267Z,33.60
2023-06-17T09:38:34.171Z,33.60
2023-06-17T09:41:02.985Z,33.30
2023-06-17T09:43:34.212Z,33.10
2023-06-17T09:46:07.658Z,33.30
2023-06-17T09:48:38.789Z,32.60
2023-06-17T09:51:13.364Z,32.70
2023-06-17T09:53:44.204Z,32.30
2023-06-17T09:56:14.919Z,31.30
2023-06-17T09:58:44.843Z,31.20
2023-06-17T10:01:14.619Z,32.20
2023-06-17T10:03:44.767Z,33.70
2023-06-17T10:06:19.760Z,33.90
2023-06-17T10:08:53.303Z,33.80
2023-06-17T10:11:22.283Z,33.50
2023-06-17T10:13:56.759Z,35.10
2023-06-17T10:16:28.227Z,35.00
2023-06-17T10:18:59.595Z,35.70
2023-06-17T10:21:31.550Z,34.90
2023-06-17T10:24:03.527Z,35.30
2023-06-17T10:26:32.274Z,34.70
2023-06-17T10:29:07.023Z,35.10
2023-06-17T10:31:40.687Z,35.60
2023-06-17T10:34:15.644Z,35.40
2023-06-17T10:36:50.765Z,34.50
2023-06-17T10:39:19.571Z,34.40
2023-06-17T10:41:59.590Z,34.30
2023-06-17T10:44:43.521Z,34.80
2023-06-17T10:47:22.837Z,35.00
2023-06-17T10:49:55.103Z,33.90
2023-06-17T10:52:24.983Z,32.90
2023-06-17T10:54:55.755Z,32.50
2023-06-17T10:57:34.168Z,32.10
2023-06-17T11:00:07.787Z,31.90
2023-06-17T11:02:38.174Z,31.90
2023-06-17T11:05:07.546Z,32.40
2023-06-17T11:07:37.790Z,33.00
2023-06-17T11:10:07.413Z,33.00
2023-06-17T11:12:37.023Z,33.00
2023-06-17T11:15:08.816Z,32.90
2023-06-17T11:17:37.304Z,33.10
2023-06-17T11:20:08.015Z,32.90
2023-06-17T11:22:40.245Z,32.50
2023-06-17T11:25:11.169Z,32.40
2023-06-17T11:27:42.105Z,32.20
2023-06-17T11:30:11.878Z,32.40
2023-06-17T11:32:42.857Z,32.50
2023-06-17T11:35:11.805Z,31.90
2023-06-17T11:37:42.887Z,32.30
2023-06-17T11:40:13.172Z,32.40
2023-06-17T11:42:41.797Z,32.80
2023-06-17T11:45:10.972Z,33.00
2023-06-17T11:47:39.464Z,33.00
2023-06-17T11:50:09.152Z,33.10
2023-06-17T11:52:38.014Z,32.70
2023-06-17T11:55:15.173Z,32.70
2023-06-17T11:57:45.250Z,32.80
2023-06-17T12:00:15.570Z,32.90
2023-06-17T12:02:44.179Z,32.80
2023-06-17T12:05:12.650Z,32.60
2023-06-17T12:07:41.610Z,32.40
2023-06-17T12:10:13.947Z,32.60
2023-06-17T12:12:42.452Z,32.40
2023-06-17T12:17:44.030Z,32.10
2023-06-17T12:20:16.881Z,32.20
2023-06-17T12:22:46.454Z,32.10
2023-06-17T12:25:16.578Z,31.90
2023-06-17T12:27:45.336Z,31.70
2023-06-17T12:30:15.192Z,31.70
2023-06-17T12:32:44.504Z,31.50
2023-06-17T12:35:13.596Z,31.10
2023-06-17T12:37:43.464Z,30.90
2023-06-17T12:40:14.067Z,30.90
2023-06-17T12:42:44.986Z,30.90
2023-06-17T12:45:14.264Z,30.80
2023-06-17T12:47:43.229Z,30.60
2023-06-17T12:50:12.404Z,29.90
2023-06-17T12:52:42.689Z,29.80
2023-06-17T12:55:11.333Z,29.80
2023-06-17T12:57:39.878Z,29.60
2023-06-17T13:00:12.025Z,29.50
2023-06-17T13:02:40.387Z,29.10
2023-06-17T13:05:10.546Z,29.00
2023-06-17T13:07:39.035Z,28.90
2023-06-17T13:10:08.420Z,28.70
2023-06-17T13:12:37.202Z,28.60
2023-06-17T13:15:11.291Z,28.70
2023-06-17T13:17:40.674Z,29.10
2023-06-17T13:20:10.638Z,29.30
2023-06-17T13:22:39.586Z,29.60
2023-06-17T13:25:08.671Z,29.80
2023-06-17T13:27:37.172Z,29.30
2023-06-17T13:30:06.236Z,29.20
2023-06-17T13:32:36.384Z,29.10
2023-06-17T13:35:06.986Z,29.10
2023-06-17T13:37:35.751Z,29.20
2023-06-17T13:40:04.809Z,29.50
2023-06-17T13:42:33.570Z,29.60
2023-06-17T13:45:01.907Z,29.70
2023-06-17T13:47:30.860Z,29.60
2023-06-17T13:50:01.170Z,29.30
2023-06-17T13:52:29.695Z,29.70
2023-06-17T13:54:58.096Z,29.80
2023-06-17T13:57:26.809Z,30.10
2023-06-17T13:59:56.322Z,29.80
2023-06-17T14:02:24.710Z,29.80
2023-06-17T14:04:53.372Z,29.70
2023-06-17T14:07:24.117Z,29.50
2023-06-17T14:09:52.380Z,29.20
2023-06-17T14:12:26.923Z,28.90
2023-06-17T14:14:55.947Z,29.20
2023-06-17T14:17:24.832Z,29.40
2023-06-17T14:19:56.375Z,29.20
2023-06-17T14:22:26.745Z,29.10
2023-06-17T14:24:58.874Z,28.90
2023-06-17T14:27:38.869Z,28.90
2023-06-17T14:30:11.224Z,29.20
2023-06-17T14:32:40.087Z,29.00
2023-06-17T14:35:10.248Z,29.00
2023-06-17T14:37:42.276Z,28.70
2023-06-17T14:40:14.049Z,28.40
2023-06-17T14:42:42.599Z,28.20
2023-06-17T14:45:12.543Z,28.20
2023-06-17T14:47:41.621Z,28.00
2023-06-17T14:50:13.210Z,28.00
2023-06-17T14:52:48.311Z,28.10
2023-06-17T14:55:17.025Z,28.10
2023-06-17T14:57:45.571Z,28.10
2023-06-17T15:00:15.106Z,28.10
2023-06-17T15:02:55.854Z,28.10
2023-06-17T15:05:27.788Z,28.00
2023-06-17T15:07:57.852Z,28.10
2023-06-17T15:10:26.247Z,27.80
2023-06-17T15:12:54.485Z,27.80
2023-06-17T15:15:23.040Z,27.80
2023-06-17T15:17:52.281Z,27.70
2023-06-17T15:20:21.212Z,27.50
2023-06-17T15:22:49.720Z,27.40
2023-06-17T15:25:19.560Z,27.20
2023-06-17T15:27:47.819Z,27.10
2023-06-17T15:30:16.396Z,27.00
2023-06-17T15:32:45.739Z,27.00
2023-06-17T15:35:14.783Z,27.00
2023-06-17T15:37:43.149Z,27.10
2023-06-17T15:40:13.783Z,27.00
2023-06-17T15:42:45.536Z,26.90
2023-06-17T15:45:14.099Z,27.00
2023-06-17T15:47:42.452Z,26.90
2023-06-17T15:50:12.141Z,26.80
2023-06-17T15:52:40.939Z,26.70
2023-06-17T15:55:09.995Z,26.60
2023-06-17T15:57:38.643Z,26.40
2023-06-17T16:00:11.677Z,26.40
2023-06-17T16:02:40.032Z,26.40
2023-06-17T16:05:09.270Z,26.40
2023-06-17T16:07:37.599Z,26.20
2023-06-17T16:10:06.254Z,26.20
2023-06-17T16:12:36.399Z,26.20
2023-06-17T16:15:05.211Z,26.30
2023-06-17T16:17:35.977Z,26.30
2023-06-17T16:20:05.418Z,26.20
2023-06-17T16:22:33.707Z,26.10
2023-06-17T16:25:02.081Z,26.00
2023-06-17T16:27:35.983Z,25.90
2023-06-17T16:30:05.249Z,26.00
2023-06-17T16:32:35.070Z,25.90
2023-06-17T16:35:04.216Z,26.00
2023-06-17T16:37:33.053Z,25.90
2023-06-17T16:40:05.978Z,25.90
2023-06-17T16:42:34.438Z,25.90
2023-06-17T16:45:04.221Z,26.10
2023-06-17T16:47:34.196Z,26.20
2023-06-17T16:50:02.548Z,26.10
2023-06-17T16:52:30.899Z,26.10
2023-06-17T16:54:59.917Z,26.10
2023-06-17T16:57:28.292Z,26.00
2023-06-17T16:59:56.656Z,26.00
2023-06-17T17:02:25.529Z,26.00
2023-06-17T17:04:55.980Z,26.00
2023-06-17T17:07:24.282Z,25.90
2023-06-17T17:09:52.514Z,25.90
2023-06-17T17:12:21.252Z,25.90
2023-06-17T17:14:49.447Z,25.60
2023-06-17T17:17:17.717Z,25.50
2023-06-17T17:19:45.956Z,25.30
2023-06-17T17:22:16.344Z,25.40
2023-06-17T17:24:45.930Z,25.60
2023-06-17T17:27:14.445Z,25.50
2023-06-17T17:29:42.958Z,25.50
2023-06-17T17:32:11.296Z,25.40
2023-06-17T17:34:40.836Z,25.40
2023-06-17T17:37:09.098Z,25.30
2023-06-17T17:39:46.625Z,25.10
2023-06-17T17:42:16.433Z,25.20
2023-06-17T17:44:44.715Z,25.20
2023-06-17T17:47:13.538Z,25.20
2023-06-17T17:49:42.115Z,25.00
2023-06-17T17:52:10.967Z,25.00
2023-06-17T17:54:49.520Z,24.90
2023-06-17T17:57:31.808Z,24.80
2023-06-17T18:00:00.407Z,24.60
2023-06-17T18:02:28.665Z,24.60
2023-06-17T18:04:57.286Z,24.60
2023-06-17T18:07:25.521Z,24.30
2023-06-17T18:09:53.744Z,24.20
2023-06-17T18:12:24.883Z,24.30
2023-06-17T18:14:54.926Z,24.30
2023-06-17T18:17:23.675Z,24.30
2023-06-17T18:19:53.407Z,24.20
2023-06-17T18:22:22.267Z,24.10
2023-06-17T18:24:50.635Z,24.10
2023-06-17T18:27:40.040Z,24.10
2023-06-17T18:30:30.503Z,24.10
2023-06-17T18:33:19.375Z,23.90
2023-06-17T18:36:09.540Z,23.90
2023-06-17T18:38:58.666Z,23.80
2023-06-17T18:41:26.985Z,23.70
2023-06-17T18:43:55.398Z,23.70
2023-06-17T18:46:26.266Z,23.60
2023-06-17T18:48:54.597Z,23.60
2023-06-17T18:51:22.854Z,23.50
2023-06-17T18:54:34.903Z,23.40
2023-06-17T18:57:03.188Z,23.40
2023-06-17T18:59:31.591Z,23.40
2023-06-17T19:02:02.731Z,23.30
2023-06-17T19:04:31.283Z,23.30
2023-06-17T19:06:59.788Z,23.20
2023-06-17T19:09:28.673Z,23.10
2023-06-17T19:12:00.739Z,23.00
2023-06-17T19:14:29.197Z,23.00
2023-06-17T19:16:57.579Z,22.90
2023-06-17T19:19:28.264Z,22.90
2023-06-17T19:21:56.765Z,22.80
2023-06-17T19:24:25.133Z,22.70
2023-06-17T19:26:53.631Z,22.60
2023-06-17T19:29:21.919Z,22.60
2023-06-17T19:31:50.299Z,22.50
2023-06-17T19:34:18.928Z,22.50
2023-06-17T19:36:48.602Z,22.20
2023-06-17T19:39:16.995Z,22.10
2023-06-17T19:41:45.860Z,21.80
2023-06-17T19:44:14.168Z,21.30
2023-06-17T19:46:44.164Z,21.30
2023-06-17T19:49:12.704Z,21.20
2023-06-17T19:51:43.896Z,21.00
2023-06-17T19:54:13.748Z,20.90
2023-06-17T19:56:42.111Z,20.90
2023-06-17T19:59:10.417Z,20.70
2023-06-17T20:01:39.155Z,20.80
2023-06-17T20:04:07.776Z,20.60
2023-06-17T20:06:36.318Z,20.30
2023-06-17T20:09:05.203Z,20.30
2023-06-17T20:11:34.998Z,20.10
2023-06-17T20:14:03.746Z,20.30
2023-06-17T20:16:32.257Z,20.30
2023-06-17T20:19:00.631Z,20.30
2023-06-17T20:21:28.967Z,20.10
2023-06-17T20:23:57.494Z,19.80
2023-06-17T20:26:27.744Z,19.60
2023-06-17T20:28:57.356Z,19.80
2023-06-17T20:31:25.988Z,20.00
2023-06-17T20:33:54.290Z,20.00
2023-06-17T20:36:23.089Z,19.90
2023-06-17T20:38:51.445Z,19.80
2023-06-17T20:41:19.708Z,19.80
2023-06-17T20:43:48.328Z,19.80
2023-06-17T20:46:18.767Z,19.70
2023-06-17T20:48:47.476Z,19.80
2023-06-17T20:51:17.968Z,19.70
2023-06-17T20:53:46.544Z,19.50
2023-06-17T20:56:14.823Z,18.90
2023-06-17T20:58:43.188Z,19.10
2023-06-17T21:01:13.185Z,19.20
2023-06-17T21:03:42.839Z,19.40
2023-06-17T21:06:11.219Z,18.90
2023-06-17T21:08:39.750Z,18.50
2023-06-17T21:11:08.149Z,18.30
2023-06-17T21:13:36.812Z,18.60
2023-06-17T21:16:05.297Z,18.40
2023-06-17T21:18:34.060Z,18.80
2023-06-17T21:21:03.688Z,19.00
2023-06-17T21:23:32.511Z,19.00
2023-06-17T21:26:01.419Z,19.10
2023-06-17T21:28:29.820Z,18.80
2023-06-17T21:30:58.163Z,18.10
2023-06-17T21:33:26.834Z,18.50
2023-06-17T21:35:55.678Z,18.70
2023-06-17T21:38:25.930Z,18.80
2023-06-17T21:40:54.298Z,18.90
2023-06-17T21:43:22.486Z,18.20
2023-06-17T21:45:53.000Z,17.70
2023-06-17T21:48:21.589Z,17.60
2023-06-17T21:50:50.026Z,17.80
2023-06-17T21:53:18.819Z,17.90
2023-06-17T21:55:48.855Z,18.20
2023-06-17T21:58:20.667Z,18.20
2023-06-17T22:00:52.132Z,18.30
2023-06-17T22:03:23.442Z,18.50
2023-06-17T22:05:52.418Z,18.50
2023-06-17T22:08:30.556Z,18.40
2023-06-17T22:11:04.300Z,18.40
2023-06-17T22:13:32.853Z,18.50
2023-06-17T22:16:01.670Z,18.50
2023-06-17T22:18:30.182Z,18.50
2023-06-17T22:21:01.758Z,18.50
2023-06-17T22:23:30.118Z,18.40
2023-06-17T22:25:58.829Z,18.30
2023-06-17T22:28:29.560Z,18.30
2023-06-17T22:30:58.173Z,18.20
2023-06-17T22:33:26.903Z,18.20
2023-06-17T22:35:55.270Z,18.10
2023-06-17T22:38:23.654Z,18.00
2023-06-17T22:40:53.370Z,18.10
2023-06-17T22:43:21.731Z,17.70
2023-06-17T22:45:51.675Z,17.80
2023-06-17T22:48:20.176Z,17.80
2023-06-17T22:50:48.640Z,17.90
2023-06-17T22:53:17.171Z,18.00
2023-06-17T22:55:46.073Z,17.80
2023-06-17T22:58:14.436Z,17.90
2023-06-17T23:00:42.852Z,17.90
2023-06-17T23:03:13.182Z,17.80
2023-06-17T23:05:41.510Z,17.70
2023-06-17T23:08:10.196Z,17.30
2023-06-17T23:10:38.448Z,16.90
2023-06-17T23:13:07.405Z,17.00
2023-06-17T23:15:38.471Z,17.10
2023-06-17T23:18:07.226Z,17.20
2023-06-17T23:20:36.898Z,17.20
2023-06-17T23:23:06.438Z,17.40
2023-06-17T23:25:35.040Z,16.80
2023-06-17T23:28:03.251Z,16.70
2023-06-17T23:30:32.223Z,16.80
2023-06-17T23:33:00.561Z,16.60
2023-06-17T23:35:29.637Z,16.70
2023-06-17T23:38:00.925Z,16.70
2023-06-17T23:40:29.626Z,16.80
2023-06-17T23:42:57.994Z,16.90
2023-06-17T23:45:27.323Z,17.00
2023-06-17T23:47:56.067Z,16.80
2023-06-17T23:50:24.844Z,16.90
2023-06-17T23:52:53.565Z,16.80
2023-06-17T23:55:23.491Z,16.60
2023-06-17T23:57:51.870Z,16.30
